Coral Harbour Airport
CYZS : now visible

Airfield :











YOU CAN JOIN US ON...

 
LOGIN :

Register | Disclaimer

   EN    FR    IT 

 









Legend :    VFR   Marginal VFR   IFR   Intensive IFR   Very Intensive IFR
Visi :
Ceiling :
>= 8 km
>= 3000ft
5 to 8 km
1000 to 3000 ft
1500m to 5 km
500 to 1000 ft
800 to 1500m
200 to 500 ft
< 800m
< 200 ft
Symbols :   Thunderstorms  Fog  Heavy snow  Heavy precipitations  Wind > 20 kt







- Airport Elevation : 210 ft
- IATA code : YZS


CYZS - Coral Harbour

CURRENT METAR :
  • 220100Z 07016KT 15SM BKN017 BKN035 01/M01 A2960 RMK SC5SC2 SLP030

EXPIRED METARs :
  • 220000Z 09011G17KT 15SM SCT025 BKN045 02/M00 A2962 RMK SC3SC4 SLP037
  • 212300Z 10010KT 15SM BKN021 BKN035 03/00 A2965 RMK SC5SC2 SLP046

TAF TAF CYZS
Valid from the 22 at 01:00 until the 22 at 13:00 UTC


220038Z 2201/2213 09012KT P6SM SCT020 BKN080
TEMPO 2201/2209 FEW006 BKN020
BECMG 2203/2205 05015KT
FM220900 04010KT P6SM SCT008 BKN200
TEMPO 2209/2213 BKN008
PROB30 2209/2213 2SM BR BKN004 RMK NXT FCST BY 220700Z
No reported NOTAMs for that airfield.



MET'MAP, your aeronautical weather chart ! - Copyright ORBIFLY December 2007 - Disclaimer

ORBIFLY MET'MAP TEAM :

Programming & Development : Alexandra Zaïnal
Concept & Development : Baudouin d'Aumeries
Co-Development & Prog : Marc-Olivier Méhu
Technical & hardware support : Manuel Goepfert

Contact : metmap@orbifly.com




SOURCES & CREDITS :

   NOAA       Earth
Advisory